createdAt,value
2019-04-16T00:01:50.639Z,42.23
2019-04-16T00:04:37.838Z,42.35
2019-04-16T00:07:25.694Z,42.23
2019-04-16T00:10:04.248Z,42.01
2019-04-16T00:12:48.340Z,41.90
2019-04-16T00:15:17.529Z,41.95
2019-04-16T00:17:47.257Z,41.74
2019-04-16T00:20:17.070Z,41.73
2019-04-16T00:22:52.904Z,41.81
2019-04-16T00:25:21.766Z,41.78
2019-04-16T00:27:50.784Z,41.64
2019-04-16T00:30:19.871Z,42.03
2019-04-16T00:32:48.723Z,42.25
2019-04-16T00:35:17.584Z,42.13
2019-04-16T00:37:46.377Z,41.88
2019-04-16T00:40:15.388Z,42.06
2019-04-16T00:42:44.511Z,42.06
2019-04-16T00:45:13.733Z,41.89
2019-04-16T00:47:42.757Z,41.94
2019-04-16T00:50:11.785Z,41.93
2019-04-16T00:52:40.849Z,41.70
2019-04-16T00:55:13.619Z,41.91
2019-04-16T00:57:40.907Z,41.80
2019-04-16T01:00:09.886Z,41.81
2019-04-16T01:02:38.750Z,41.73
2019-04-16T01:05:07.548Z,41.60
2019-04-16T01:07:36.892Z,41.42
2019-04-16T01:10:05.789Z,41.73
2019-04-16T01:12:34.578Z,41.92
2019-04-16T01:15:03.598Z,41.64
2019-04-16T01:17:33.487Z,41.52
2019-04-16T01:20:03.651Z,41.79
2019-04-16T01:22:32.663Z,41.79
2019-04-16T01:25:01.724Z,41.56
2019-04-16T01:27:33.939Z,41.53
2019-04-16T01:30:05.933Z,41.42
2019-04-16T01:32:51.214Z,41.33
2019-04-16T01:35:51.076Z,41.30
2019-04-16T01:38:37.802Z,41.17
2019-04-16T01:41:12.078Z,41.28
2019-04-16T01:43:41.126Z,41.11
2019-04-16T01:46:10.093Z,41.18
2019-04-16T01:48:39.815Z,41.11
2019-04-16T01:51:08.882Z,41.10
2019-04-16T01:53:38.078Z,41.32
2019-04-16T01:56:07.162Z,41.29
2019-04-16T01:58:37.012Z,41.21
2019-04-16T02:01:08.061Z,41.14
2019-04-16T02:03:36.647Z,41.34
2019-04-16T02:06:05.660Z,41.77
2019-04-16T02:08:34.683Z,41.63
2019-04-16T02:11:03.581Z,41.53
2019-04-16T02:13:32.627Z,41.69
2019-04-16T02:16:01.607Z,41.32
2019-04-16T02:18:30.673Z,41.42
2019-04-16T02:20:59.936Z,41.29
2019-04-16T02:23:29.060Z,41.84
2019-04-16T02:25:58.049Z,41.73
2019-04-16T02:28:28.437Z,41.76
2019-04-16T02:30:57.710Z,41.83
2019-04-16T02:33:26.871Z,41.79
2019-04-16T02:35:55.778Z,41.47
2019-04-16T02:38:24.846Z,41.76
2019-04-16T02:40:53.842Z,41.82
2019-04-16T02:43:22.854Z,41.52
2019-04-16T02:45:56.331Z,41.87
2019-04-16T02:48:22.479Z,42.16
2019-04-16T02:50:54.478Z,41.89
2019-04-16T02:53:58.495Z,41.99
2019-04-16T02:56:42.982Z,41.92
2019-04-16T02:59:15.514Z,42.10
2019-04-16T03:02:02.231Z,41.92
2019-04-16T03:04:37.159Z,42.04
2019-04-16T03:07:06.150Z,42.26
2019-04-16T03:09:39.767Z,41.76
2019-04-16T03:12:05.575Z,42.25
2019-04-16T03:14:34.445Z,41.86
2019-04-16T03:17:22.238Z,42.03
2019-04-16T03:19:52.077Z,42.21
2019-04-16T03:22:21.079Z,41.76
2019-04-16T03:24:50.138Z,41.72
2019-04-16T03:27:21.919Z,41.86
2019-04-16T03:29:49.722Z,41.71
2019-04-16T03:32:18.582Z,41.73
2019-04-16T03:34:50.579Z,41.73
2019-04-16T03:37:18.383Z,41.66
2019-04-16T03:39:47.528Z,41.64
2019-04-16T03:42:16.543Z,41.79
2019-04-16T03:44:45.543Z,41.66
2019-04-16T03:47:15.763Z,41.61
2019-04-16T03:49:45.461Z,41.52
2019-04-16T03:52:14.497Z,41.61
2019-04-16T03:54:43.507Z,41.61
2019-04-16T03:57:12.508Z,41.58
2019-04-16T03:59:41.741Z,41.70
2019-04-16T04:02:10.732Z,41.59
2019-04-16T04:04:39.778Z,41.43
2019-04-16T04:07:11.829Z,41.49
2019-04-16T04:09:39.838Z,41.39
2019-04-16T04:12:09.612Z,41.47
2019-04-16T04:14:39.793Z,41.37
2019-04-16T04:17:09.504Z,41.30
2019-04-16T04:19:38.514Z,41.19
2019-04-16T04:22:07.521Z,41.13
2019-04-16T04:24:36.860Z,41.01
2019-04-16T04:27:05.915Z,40.97
2019-04-16T04:29:34.953Z,40.94
2019-04-16T04:32:04.304Z,40.78
2019-04-16T04:34:33.366Z,40.78
2019-04-16T04:37:02.381Z,40.72
2019-04-16T04:39:31.260Z,40.77
2019-04-16T04:42:00.034Z,40.69
2019-04-16T04:44:28.951Z,40.62
2019-04-16T04:46:57.996Z,40.63
2019-04-16T04:49:30.069Z,40.62
2019-04-16T04:51:57.901Z,40.70
2019-04-16T04:54:26.833Z,40.65
2019-04-16T04:56:56.423Z,40.58
2019-04-16T04:59:26.715Z,40.57
2019-04-16T05:01:55.497Z,40.59
2019-04-16T05:04:40.557Z,40.54
2019-04-16T05:07:10.064Z,40.60
2019-04-16T05:09:39.467Z,40.56
2019-04-16T05:12:08.653Z,40.71
2019-04-16T05:14:41.066Z,40.73
2019-04-16T05:17:10.264Z,40.68
2019-04-16T05:19:39.222Z,40.65
2019-04-16T05:22:08.932Z,40.64
2019-04-16T05:24:37.878Z,40.90
2019-04-16T05:27:08.605Z,40.76
2019-04-16T05:29:37.966Z,40.65
2019-04-16T05:32:06.896Z,40.59
2019-04-16T05:34:37.489Z,40.60
2019-04-16T05:37:07.682Z,40.55
2019-04-16T05:39:36.912Z,40.74
2019-04-16T05:42:05.752Z,40.95
2019-04-16T05:44:35.501Z,40.86
2019-04-16T05:47:04.277Z,40.62
2019-04-16T05:49:33.309Z,40.74
2019-04-16T05:52:03.820Z,40.89
2019-04-16T05:54:50.599Z,40.94
2019-04-16T05:57:27.849Z,40.99
2019-04-16T05:59:56.810Z,41.23
2019-04-16T06:02:42.477Z,40.95
2019-04-16T06:05:11.602Z,41.02
2019-04-16T06:07:40.437Z,41.11
2019-04-16T06:10:09.382Z,41.19
2019-04-16T06:12:58.672Z,41.19
2019-04-16T06:15:35.941Z,41.18
2019-04-16T06:18:26.650Z,41.29
2019-04-16T06:21:29.479Z,41.27
2019-04-16T06:24:36.074Z,41.29
2019-04-16T06:27:30.297Z,41.35
2019-04-16T06:30:26.981Z,41.25
2019-04-16T06:32:58.714Z,41.26
2019-04-16T06:35:50.021Z,41.26
2019-04-16T06:38:31.747Z,41.05
2019-04-16T06:41:12.758Z,41.00
2019-04-16T06:43:48.109Z,39.22
2019-04-16T06:46:27.975Z,40.06
2019-04-16T06:49:34.331Z,40.24
2019-04-16T06:52:19.388Z,40.29
2019-04-16T06:55:00.520Z,40.27
2019-04-16T06:57:49.172Z,40.03
2019-04-16T07:00:35.631Z,39.75
2019-04-16T07:03:25.858Z,39.67
2019-04-16T07:06:20.740Z,39.59
2019-04-16T07:09:05.905Z,39.54
2019-04-16T07:11:36.550Z,39.46
2019-04-16T07:14:06.189Z,39.68
2019-04-16T07:16:35.280Z,39.60
2019-04-16T07:19:04.375Z,39.71
2019-04-16T07:21:33.177Z,40.05
2019-04-16T07:24:02.330Z,40.18
2019-04-16T07:26:31.673Z,40.19
2019-04-16T07:29:07.308Z,39.60
2019-04-16T07:32:01.073Z,38.67
2019-04-16T07:34:49.011Z,38.78
2019-04-16T07:37:37.894Z,38.68
2019-04-16T07:40:35.031Z,38.82
2019-04-16T07:43:16.327Z,38.76
2019-04-16T07:45:52.333Z,38.66
2019-04-16T07:48:40.334Z,38.51
2019-04-16T07:51:22.955Z,38.51
2019-04-16T07:54:13.674Z,38.32
2019-04-16T07:56:45.394Z,38.44
2019-04-16T07:59:14.387Z,38.56
2019-04-16T08:01:44.152Z,38.53
2019-04-16T08:04:14.066Z,38.47
2019-04-16T08:06:46.210Z,38.46
2019-04-16T08:09:13.988Z,38.52
2019-04-16T08:11:43.087Z,38.49
2019-04-16T08:14:14.636Z,38.36
2019-04-16T08:16:47.741Z,38.46
2019-04-16T08:19:15.316Z,38.53
2019-04-16T08:21:44.641Z,38.53
2019-04-16T08:24:24.401Z,38.51
2019-04-16T08:26:50.149Z,38.51
2019-04-16T08:29:19.004Z,38.77
2019-04-16T08:31:49.234Z,38.73
2019-04-16T08:34:17.447Z,38.87
2019-04-16T08:36:46.602Z,38.98
2019-04-16T08:39:16.448Z,39.18
2019-04-16T08:41:45.608Z,39.23
2019-04-16T08:44:14.655Z,39.14
2019-04-16T08:46:43.820Z,38.52
2019-04-16T08:49:14.848Z,38.10
2019-04-16T08:51:44.410Z,37.94
2019-04-16T08:54:17.794Z,37.89
2019-04-16T08:56:44.309Z,38.02
2019-04-16T08:59:13.141Z,38.03
2019-04-16T09:01:42.235Z,38.22
2019-04-16T09:04:11.254Z,37.96
2019-04-16T09:06:42.598Z,38.02
2019-04-16T09:09:38.614Z,38.32
2019-04-16T09:12:09.653Z,38.27
2019-04-16T09:14:45.301Z,38.38
2019-04-16T09:17:20.666Z,38.47
2019-04-16T09:20:09.738Z,38.52
2019-04-16T09:22:48.777Z,38.46
2019-04-16T09:25:28.395Z,38.41
2019-04-16T09:28:07.300Z,38.53
2019-04-16T09:30:59.496Z,38.40
2019-04-16T09:33:47.445Z,38.27
2019-04-16T09:36:39.128Z,38.39
2019-04-16T09:39:21.454Z,38.15
2019-04-16T09:41:51.852Z,38.09
2019-04-16T09:44:20.704Z,37.85
2019-04-16T09:46:51.898Z,38.32
2019-04-16T09:49:20.275Z,37.91
2019-04-16T09:51:51.037Z,38.02
2019-04-16T09:54:19.936Z,38.07
2019-04-16T09:56:48.979Z,38.69
2019-04-16T09:59:31.519Z,38.61
2019-04-16T10:02:06.557Z,38.83
2019-04-16T10:04:35.549Z,39.14
2019-04-16T10:07:04.783Z,39.30
2019-04-16T10:09:33.642Z,39.20
2019-04-16T10:12:05.040Z,39.08
2019-04-16T10:14:33.063Z,38.83
2019-04-16T10:17:02.084Z,38.35
2019-04-16T10:19:31.126Z,37.92
2019-04-16T10:22:00.139Z,37.99
2019-04-16T10:24:46.196Z,38.38
2019-04-16T10:27:40.127Z,38.51
2019-04-16T10:30:30.040Z,38.82
2019-04-16T10:32:58.948Z,38.78
2019-04-16T10:35:27.725Z,39.38
2019-04-16T10:37:56.776Z,39.29
2019-04-16T10:40:31.797Z,38.96
2019-04-16T10:43:19.230Z,37.38
2019-04-16T10:46:09.687Z,37.82
2019-04-16T10:48:55.231Z,37.95
2019-04-16T10:51:31.384Z,37.96
2019-04-16T10:54:25.528Z,37.89
2019-04-16T10:57:12.381Z,38.27
2019-04-16T10:59:50.630Z,38.45
2019-04-16T11:02:38.800Z,38.64
2019-04-16T11:05:21.563Z,38.25
2019-04-16T11:07:50.887Z,38.12
2019-04-16T11:10:19.904Z,38.25
2019-04-16T11:12:48.805Z,38.18
2019-04-16T11:15:21.616Z,38.46
2019-04-16T11:17:50.598Z,38.45
2019-04-16T11:20:19.492Z,38.52
2019-04-16T11:22:48.901Z,38.55
2019-04-16T11:25:19.179Z,38.55
2019-04-16T11:27:47.411Z,37.78
2019-04-16T11:30:30.895Z,37.87
2019-04-16T11:33:00.244Z,38.13
2019-04-16T11:35:29.115Z,37.96
2019-04-16T11:37:58.175Z,38.21
2019-04-16T11:40:27.120Z,38.36
2019-04-16T11:42:56.058Z,37.94
2019-04-16T11:45:25.158Z,38.08
2019-04-16T11:47:54.198Z,38.36
2019-04-16T11:50:24.976Z,38.52
2019-04-16T11:52:57.283Z,38.63
2019-04-16T11:55:25.066Z,38.66
2019-04-16T11:57:53.932Z,38.63
2019-04-16T12:00:50.772Z,38.45
2019-04-16T12:03:25.300Z,38.53
2019-04-16T12:06:26.749Z,38.39
2019-04-16T12:09:02.474Z,38.40
2019-04-16T12:11:39.702Z,37.58
2019-04-16T12:14:31.006Z,37.82
2019-04-16T12:17:10.342Z,37.21
2019-04-16T12:20:13.601Z,37.83
2019-04-16T12:22:46.575Z,37.96
2019-04-16T12:25:29.272Z,37.93
2019-04-16T12:28:12.725Z,37.92
2019-04-16T12:30:55.038Z,37.63
2019-04-16T12:33:32.054Z,38.10
2019-04-16T12:36:25.985Z,37.99
2019-04-16T12:39:19.565Z,37.92
2019-04-16T12:42:00.020Z,38.03
2019-04-16T12:44:44.526Z,38.08
2019-04-16T12:47:22.360Z,38.19
2019-04-16T12:50:09.314Z,38.16
2019-04-16T12:53:06.730Z,38.12
2019-04-16T12:55:53.008Z,38.33
2019-04-16T12:58:50.388Z,37.33
2019-04-16T13:01:45.425Z,37.81
2019-04-16T13:04:25.700Z,37.66
2019-04-16T13:07:31.790Z,37.88
2019-04-16T13:10:14.375Z,37.96
2019-04-16T13:13:02.552Z,37.95
2019-04-16T13:15:53.456Z,38.08
2019-04-16T13:18:36.790Z,37.86
2019-04-16T13:21:20.053Z,37.29
2019-04-16T13:24:20.146Z,37.78
2019-04-16T13:27:11.590Z,38.16
2019-04-16T13:29:40.599Z,37.66
2019-04-16T13:32:09.591Z,38.22
2019-04-16T13:34:38.531Z,37.78
2019-04-16T13:37:07.418Z,38.19
2019-04-16T13:39:54.021Z,37.47
2019-04-16T13:42:23.082Z,35.37
2019-04-16T13:44:57.454Z,34.67
2019-04-16T13:47:26.596Z,35.12
2019-04-16T13:50:12.075Z,35.61
2019-04-16T13:52:41.578Z,36.10
2019-04-16T13:55:25.139Z,36.50
2019-04-16T13:58:01.192Z,36.62
2019-04-16T14:00:49.216Z,36.83
2019-04-16T14:03:20.891Z,36.85
2019-04-16T14:05:50.341Z,36.62
2019-04-16T14:08:19.312Z,36.68
2019-04-16T14:10:48.209Z,37.22
2019-04-16T14:13:17.316Z,37.30
2019-04-16T14:15:46.518Z,37.13
2019-04-16T14:18:15.300Z,36.63
2019-04-16T14:20:44.341Z,36.83
2019-04-16T14:23:13.358Z,37.22
2019-04-16T14:25:42.927Z,37.18
2019-04-16T14:28:11.927Z,37.10
2019-04-16T14:30:45.942Z,37.02
2019-04-16T14:33:18.493Z,37.31
2019-04-16T14:35:47.400Z,37.03
2019-04-16T14:38:26.232Z,37.00
2019-04-16T14:40:55.049Z,37.29
2019-04-16T14:43:30.149Z,37.24
2019-04-16T14:46:00.550Z,37.18
2019-04-16T14:48:29.790Z,37.08
2019-04-16T14:50:58.894Z,37.06
2019-04-16T14:53:37.338Z,37.15
2019-04-16T14:56:17.097Z,37.06
2019-04-16T14:59:26.674Z,37.05
2019-04-16T15:01:49.321Z,37.03
2019-04-16T15:04:43.168Z,37.19
2019-04-16T15:07:31.964Z,37.14
2019-04-16T15:10:12.853Z,36.61
2019-04-16T15:12:49.150Z,37.08
2019-04-16T15:15:46.194Z,36.88
2019-04-16T15:18:36.896Z,37.00
2019-04-16T15:21:23.697Z,37.04
2019-04-16T15:24:10.192Z,36.33
2019-04-16T15:26:57.080Z,36.48
2019-04-16T15:29:46.585Z,36.29
2019-04-16T15:32:42.406Z,36.25
2019-04-16T15:35:15.087Z,36.52
2019-04-16T15:38:08.305Z,36.66
2019-04-16T15:40:40.476Z,35.91
2019-04-16T15:43:25.186Z,36.40
2019-04-16T15:46:26.398Z,36.43
2019-04-16T15:49:09.447Z,35.75
2019-04-16T15:51:56.223Z,36.17
2019-04-16T15:54:42.849Z,35.58
2019-04-16T15:57:40.066Z,35.96
2019-04-16T16:00:26.892Z,36.00
2019-04-16T16:03:13.620Z,35.89
2019-04-16T16:05:46.649Z,35.87
2019-04-16T16:08:30.499Z,35.73
2019-04-16T16:11:02.087Z,35.83
2019-04-16T16:13:30.948Z,35.80
2019-04-16T16:15:59.957Z,35.87
2019-04-16T16:18:28.934Z,35.73
2019-04-16T16:20:57.963Z,35.67
2019-04-16T16:23:27.064Z,35.73
2019-04-16T16:25:56.222Z,35.72
2019-04-16T16:28:25.209Z,35.75
2019-04-16T16:30:54.325Z,35.37
2019-04-16T16:33:23.362Z,35.70
2019-04-16T16:35:58.862Z,35.67
2019-04-16T16:38:23.378Z,35.71
2019-04-16T16:40:52.297Z,35.46
2019-04-16T16:43:21.556Z,35.34
2019-04-16T16:46:12.727Z,35.58
2019-04-16T16:48:41.946Z,35.56
2019-04-16T16:51:14.831Z,35.68
2019-04-16T16:53:49.728Z,35.58
2019-04-16T16:56:26.899Z,35.26
2019-04-16T16:59:17.678Z,35.62
2019-04-16T17:02:10.371Z,35.79
2019-04-16T17:04:42.959Z,35.69
2019-04-16T17:07:11.859Z,35.85
2019-04-16T17:09:40.769Z,35.92
2019-04-16T17:12:09.744Z,36.05
2019-04-16T17:14:57.794Z,35.96
2019-04-16T17:17:26.784Z,36.28
2019-04-16T17:19:55.825Z,36.18
2019-04-16T17:22:24.715Z,36.22
2019-04-16T17:24:53.820Z,36.37
2019-04-16T17:27:22.981Z,35.99
2019-04-16T17:29:51.931Z,36.24
2019-04-16T17:32:20.788Z,35.99
2019-04-16T17:34:49.948Z,36.01
2019-04-16T17:37:21.312Z,36.02
2019-04-16T17:39:52.612Z,35.99
2019-04-16T17:42:26.953Z,36.17
2019-04-16T17:45:24.689Z,36.26
2019-04-16T17:48:02.838Z,36.48
2019-04-16T17:50:51.323Z,36.42
2019-04-16T17:53:36.991Z,36.76
2019-04-16T17:56:34.123Z,36.65
2019-04-16T17:59:06.376Z,36.94
2019-04-16T18:02:06.778Z,36.95
2019-04-16T18:04:44.631Z,37.21
2019-04-16T18:07:41.943Z,37.32
2019-04-16T18:10:26.569Z,37.28
2019-04-16T18:13:00.504Z,37.36
2019-04-16T18:15:42.555Z,37.50
2019-04-16T18:18:27.797Z,37.59
2019-04-16T18:21:08.865Z,37.68
2019-04-16T18:23:54.875Z,37.72
2019-04-16T18:26:41.644Z,37.79
2019-04-16T18:29:21.354Z,37.82
2019-04-16T18:31:57.564Z,37.99
2019-04-16T18:34:51.384Z,38.10
2019-04-16T18:37:57.521Z,38.02
2019-04-16T18:41:04.285Z,38.02
2019-04-16T18:43:51.433Z,37.98
2019-04-16T18:46:31.785Z,38.09
2019-04-16T18:49:05.886Z,38.21
2019-04-16T18:51:34.757Z,38.30
2019-04-16T18:54:04.129Z,38.30
2019-04-16T18:56:33.246Z,38.34
2019-04-16T18:59:02.309Z,38.40
2019-04-16T19:01:32.570Z,38.43
2019-04-16T19:04:02.540Z,38.32
2019-04-16T19:06:31.416Z,38.34
2019-04-16T19:09:00.422Z,38.51
2019-04-16T19:11:29.354Z,38.52
2019-04-16T19:13:58.411Z,38.58
2019-04-16T19:16:27.352Z,38.67
2019-04-16T19:18:56.289Z,38.68
2019-04-16T19:21:25.312Z,38.78
2019-04-16T19:23:54.402Z,38.83
2019-04-16T19:26:24.779Z,38.82
2019-04-16T19:28:53.506Z,38.91
2019-04-16T19:31:23.824Z,38.99
2019-04-16T19:33:51.942Z,39.05
2019-04-16T19:36:27.162Z,39.10
2019-04-16T19:38:53.763Z,39.16
2019-04-16T19:41:24.283Z,39.21
2019-04-16T19:43:53.748Z,39.23
2019-04-16T19:46:23.165Z,39.12
2019-04-16T19:48:53.032Z,39.11
2019-04-16T19:51:21.939Z,38.97
2019-04-16T19:53:51.103Z,38.94
2019-04-16T19:56:20.341Z,39.13
2019-04-16T19:58:49.275Z,39.02
2019-04-16T20:01:18.169Z,39.06
2019-04-16T20:03:47.163Z,39.19
2019-04-16T20:06:16.286Z,39.30
2019-04-16T20:08:45.364Z,39.37
2019-04-16T20:11:14.745Z,39.24
2019-04-16T20:13:43.700Z,39.38
2019-04-16T20:16:12.598Z,39.44
2019-04-16T20:18:50.971Z,39.35
2019-04-16T20:24:02.803Z,39.58
2019-04-16T20:26:32.531Z,39.54
2019-04-16T20:29:02.638Z,39.49
2019-04-16T20:31:31.725Z,39.57
2019-04-16T20:34:00.722Z,39.50
2019-04-16T20:36:29.721Z,39.60
2019-04-16T20:38:58.759Z,39.49
2019-04-16T20:41:27.783Z,39.52
2019-04-16T20:43:56.758Z,39.46
2019-04-16T20:46:25.838Z,39.58
2019-04-16T20:49:07.695Z,39.68
2019-04-16T20:51:26.527Z,39.67
2019-04-16T20:53:56.609Z,39.61
2019-04-16T20:56:25.832Z,39.59
2019-04-16T20:58:54.819Z,39.59
2019-04-16T21:01:33.669Z,39.71
2019-04-16T21:04:04.515Z,39.64
2019-04-16T21:06:29.419Z,39.64
2019-04-16T21:08:58.702Z,39.65
2019-04-16T21:11:27.786Z,39.65
2019-04-16T21:13:56.713Z,39.58
2019-04-16T21:16:25.996Z,39.68
2019-04-16T21:18:55.474Z,39.72
2019-04-16T21:21:24.485Z,39.81
2019-04-16T21:23:53.395Z,39.84
2019-04-16T21:26:22.331Z,39.82
2019-04-16T21:29:14.429Z,39.85
2019-04-16T21:31:47.550Z,39.76
2019-04-16T21:34:29.773Z,39.71
2019-04-16T21:37:11.832Z,39.76
2019-04-16T21:39:47.333Z,39.80
2019-04-16T21:42:17.611Z,39.83
2019-04-16T21:44:46.623Z,39.83
2019-04-16T21:47:15.749Z,39.74
2019-04-16T21:49:45.749Z,39.84
2019-04-16T21:52:14.066Z,39.79
2019-04-16T21:54:43.099Z,39.88
2019-04-16T21:57:14.264Z,39.94
2019-04-16T21:59:43.192Z,39.87
2019-04-16T22:02:26.777Z,39.88
2019-04-16T22:04:56.158Z,39.96
2019-04-16T22:07:25.600Z,39.94
2019-04-16T22:09:54.658Z,39.94
2019-04-16T22:12:23.593Z,39.91
2019-04-16T22:14:54.475Z,39.85
2019-04-16T22:17:23.274Z,39.86
2019-04-16T22:19:54.676Z,39.89
2019-04-16T22:22:22.738Z,39.91
2019-04-16T22:24:54.813Z,40.03
2019-04-16T22:27:22.330Z,40.03
2019-04-16T22:29:51.259Z,40.00
2019-04-16T22:32:20.296Z,39.92
2019-04-16T22:34:49.301Z,39.98
2019-04-16T22:37:18.333Z,39.84
2019-04-16T22:39:59.150Z,39.79
2019-04-16T22:42:42.393Z,39.89
2019-04-16T22:45:42.496Z,39.83
2019-04-16T22:48:11.489Z,39.74
2019-04-16T22:50:40.600Z,39.85
2019-04-16T22:53:09.464Z,39.93
2019-04-16T22:55:42.350Z,39.96
2019-04-16T22:58:22.509Z,39.80
2019-04-16T23:00:51.972Z,40.16
2019-04-16T23:03:20.839Z,40.67
2019-04-16T23:05:49.931Z,40.67
2019-04-16T23:08:18.922Z,40.88
2019-04-16T23:10:50.549Z,40.51
2019-04-16T23:13:18.462Z,40.67
2019-04-16T23:15:47.541Z,41.01
2019-04-16T23:18:17.518Z,40.97
2019-04-16T23:20:47.433Z,40.92
2019-04-16T23:23:19.013Z,41.05
2019-04-16T23:25:46.986Z,40.96
2019-04-16T23:28:16.054Z,41.02
2019-04-16T23:31:04.285Z,40.99
2019-04-16T23:33:33.569Z,40.85
2019-04-16T23:36:02.580Z,40.89
2019-04-16T23:38:32.482Z,41.10
2019-04-16T23:41:01.650Z,41.06
2019-04-16T23:43:40.590Z,40.86
2019-04-16T23:46:28.486Z,40.96
2019-04-16T23:49:03.533Z,40.94
2019-04-16T23:51:39.505Z,40.53
2019-04-16T23:54:18.257Z,40.79
2019-04-16T23:56:52.884Z,40.78
2019-04-16T23:59:39.793Z,40.81
